Campanya meteocatpedra

Dades EMA Tarragona - Complex Educatiu

?
?
Resum diari
Dades diàries de l'estació meteorològica
Temperatura mitjana 12.3 °C
Temperatura màxima 15.6 °C 3:03 TU
Temperatura mínima 10.6 °C 14:39 TU
Humitat relativa mitjana 94%
Precipitació acumulada 59.4 mm
Ratxa màxima del vent (10 m) 36.0 km/h - 34º 15:08 TU
Pressió atmosfèrica mitjana 1010.9 hPa
Irradiació solar global 0.4 MJ/m2

El tram horari està expressat en Temps Universal (TU). Cal sumar una hora en horari d'hivern i dues en horari d'estiu per passar a l'hora oficial.

Tarragona - Complex Educatiu

Metadades estació meteorol´gica
Municipi Tarragona
Comarca Tarragonès
Altitud 5 m
Data alta 05.02.2009
Estat actual Operativa
Dades de període
Període
TU
TM
°C
TX
°C
TN
°C
HRM
%
PPT
mm
VVM (10 m)
km/h
DVM (10 m)
graus
VVX (10 m)
km/h
PM
hPa
RS
W/m2
00:00 - 00:30 14.0 14.1 13.8 88 0.0 7.9 9 13.7 1010.8 0
00:30 - 01:00 13.5 13.8 13.3 91 0.0 5.8 18 11.2 1010.6 0
01:00 - 01:30 13.5 14.4 13.4 94 0.0 6.5 40 15.1 1010.5 0
01:30 - 02:00 15.0 15.2 14.5 88 0.0 10.8 60 19.8 1010.4 0
02:00 - 02:30 15.3 15.4 15.2 86 0.0 12.2 64 23.8 1010.3 0
02:30 - 03:00 15.4 15.5 15.3 86 0.0 13.0 64 31.3 1010.1 0
03:00 - 03:30 15.5 15.6 15.4 86 0.0 14.8 62 28.1 1010.0 0
03:30 - 04:00 15.4 15.4 15.4 87 0.0 15.8 60 27.7 1009.8 0
04:00 - 04:30 15.5 15.5 15.4 87 0.1 13.7 59 25.9 1009.6 0
04:30 - 05:00 15.2 15.4 15.0 90 0.1 13.0 57 24.8 1009.5 0
05:00 - 05:30 15.1 15.2 14.7 89 0.5 14.8 53 26.6 1009.6 0
05:30 - 06:00 14.7 14.8 14.5 89 0.1 14.8 40 26.6 1009.5 0
06:00 - 06:30 14.5 14.5 14.3 78 0.0 12.2 19 25.9 1009.9 0
06:30 - 07:00 12.9 14.2 12.1 87 0.9 10.4 351 24.8 1010.0 0
07:00 - 07:30 12.9 13.1 12.8 91 0.9 15.8 16 34.6 1010.0 5
07:30 - 08:00 12.3 12.8 11.0 93 8.0 11.9 252 24.1 1011.4 2
08:00 - 08:30 10.7 10.9 10.6 100 15.4 7.6 30 16.6 1011.8 2
08:30 - 09:00 10.8 10.9 10.6 100 4.4 10.4 5 27.4 1012.1 1
09:00 - 09:30 10.9 11.0 10.9 100 4.1 7.2 347 16.2 1012.4 1
09:30 - 10:00 10.8 10.9 10.8 100 3.1 10.4 9 21.6 1012.4 2
10:00 - 10:30 10.7 10.8 10.7 100 2.7 14.4 20 26.3 1012.5 2
10:30 - 11:00 10.8 10.9 10.7 100 2.7 12.2 19 22.3 1012.6 2
11:00 - 11:30 10.8 10.9 10.7 100 3.5 13.3 22 23.8 1012.6 5
11:30 - 12:00 10.7 10.7 10.7 100 2.8 10.8 30 20.5 1012.8 8
12:00 - 12:30 10.7 10.7 10.6 100 2.8 7.9 12 14.8 1012.5 15
12:30 - 13:00 10.7 10.8 10.6 100 2.0 7.9 0 15.1 1011.8 25
13:00 - 13:30 10.8 10.8 10.7 100 1.4 12.6 11 21.2 1011.4 32
13:30 - 14:00 10.8 10.9 10.7 100 1.0 13.7 10 23.4 1010.8 28
14:00 - 14:30 10.6 10.7 10.6 100 1.6 15.1 3 26.6 1010.4 13
14:30 - 15:00 10.6 10.8 10.6 100 0.5 13.7 14 33.8 1010.4 19
15:00 - 15:30 11.0 11.3 10.8 100 0.1 19.4 25 36.0 1010.3 31
15:30 - 16:00 11.5 11.6 11.3 100 0.0 13.3 11 29.9 1010.5 26
16:00 - 16:30 11.7 11.7 11.6 97 0.0 13.0 9 26.3 1010.4 7
16:30 - 17:00 11.6 11.7 11.5 95 0.0 11.2 18 20.5 1010.3 0
17:00 - 17:30 11.8 11.9 11.7 91 0.0 12.6 31 22.7 1010.5 0
17:30 - 18:00 11.9 12.1 11.7 92 0.0 9.7 28 17.6 1010.8 0
18:00 - 18:30 12.1 12.2 12.0 94 0.3 10.1 22 18.0 1010.9 0
18:30 - 19:00 12.1 12.1 12.0 95 0.0 10.1 28 18.0 1011.2 0
19:00 - 19:30 12.0 12.1 11.8 94 0.0 9.7 34 15.1 1011.3 0
19:30 - 20:00 12.1 12.1 12.0 91 0.0 7.6 14 14.0 1011.1 0
20:00 - 20:30 11.8 12.1 11.5 91 0.0 7.6 16 13.7 1011.1 0
20:30 - 21:00 11.5 11.6 11.5 93 0.0 6.8 15 13.0 1011.1 0
21:00 - 21:30 11.8 11.9 11.6 92 0.0 6.5 22 13.0 1010.9 0
21:30 - 22:00 11.5 11.9 11.1 95 0.0 4.3 38 14.0 1011.0 0
22:00 - 22:30 12.3 12.4 11.9 89 0.1 10.1 29 15.1 1011.0 0
22:30 - 23:00 11.8 12.0 11.4 97 0.3 4.7 33 10.4 1011.2 0
23:00 - 23:30 11.3 11.5 11.2 100 0.0 4.7 30 7.9 1011.2 0
23:30 - 00:00 11.7 11.7 11.6 100 0.0 5.0 23 8.6 1011.1 0

Les dades en taronja només han passat un control de qualitat automàtic. Resta pendent la seva validació definitiva.